Terminal Aerodrome Forecast
Issued by NWS Pocatello, ID

Home | Current Version | Previous Version | Text Only | Print | Product List | Glossary On
Versions: 1 2 3 4 5 6 7 8 9 10 11 12
000
FTUS45 KPIH 062343
TAFIDA
TAF
KIDA 062343Z 0700/0724 36006KT P6SM VCTS SCT050CB BKN100
     FM070300 VRB04KT P6SM FEW080 SCT150 BKN200
     FM072000 VRB05KT P6SM SCT090 SCT150=

USA.gov is the U.S. government's official web portal to all federal, state and local government web resources and services.